createdAt,value
2023-05-14T00:02:07.590Z,3.22
2023-05-14T00:04:34.528Z,1.17
2023-05-14T00:07:01.286Z,3.78
2023-05-14T00:09:28.184Z,2.10
2023-05-14T00:11:54.905Z,3.95
2023-05-14T00:14:21.839Z,3.15
2023-05-14T00:16:49.016Z,2.15
2023-05-14T00:19:15.874Z,1.52
2023-05-14T00:21:42.697Z,3.72
2023-05-14T00:24:11.538Z,3.35
2023-05-14T00:26:38.336Z,1.70
2023-05-14T00:29:05.155Z,4.13
2023-05-14T00:31:31.918Z,1.77
2023-05-14T00:33:58.681Z,3.30
2023-05-14T00:36:27.522Z,4.10
2023-05-14T00:38:54.293Z,1.40
2023-05-14T00:41:21.732Z,1.85
2023-05-14T00:43:48.519Z,3.13
2023-05-14T00:46:16.513Z,2.30
2023-05-14T00:48:44.230Z,1.38
2023-05-14T00:51:11.668Z,2.03
2023-05-14T00:53:38.617Z,1.05
2023-05-14T00:56:06.063Z,1.38
2023-05-14T00:58:32.889Z,1.42
2023-05-14T01:00:59.786Z,2.28
2023-05-14T01:03:27.004Z,1.85
2023-05-14T01:06:05.969Z,0.85
2023-05-14T01:09:01.669Z,1.30
2023-05-14T01:11:39.525Z,1.55
2023-05-14T01:14:32.410Z,2.53
2023-05-14T01:17:02.333Z,2.35
2023-05-14T01:19:42.435Z,9.50
2023-05-14T01:22:10.117Z,4.05
2023-05-14T01:24:36.967Z,1.58
2023-05-14T01:27:28.252Z,2.25
2023-05-14T01:30:18.125Z,1.65
2023-05-14T01:32:48.734Z,2.70
2023-05-14T01:35:16.732Z,3.67
2023-05-14T01:37:44.796Z,5.63
2023-05-14T01:40:14.082Z,2.63
2023-05-14T01:42:41.529Z,4.55
2023-05-14T01:45:08.706Z,1.30
2023-05-14T01:47:35.473Z,2.50
2023-05-14T01:50:02.152Z,1.60
2023-05-14T01:52:28.946Z,2.42
2023-05-14T01:54:55.614Z,3.15
2023-05-14T01:57:25.169Z,3.55
2023-05-14T01:59:51.999Z,3.50
2023-05-14T02:02:18.695Z,5.60
2023-05-14T02:04:45.672Z,3.35
2023-05-14T02:07:12.644Z,3.38
2023-05-14T02:09:40.212Z,2.13
2023-05-14T02:12:08.519Z,3.33
2023-05-14T02:14:35.441Z,2.17
2023-05-14T02:17:03.535Z,4.35
2023-05-14T02:19:45.187Z,5.38
2023-05-14T02:22:17.657Z,2.95
2023-05-14T02:25:01.521Z,6.03
2023-05-14T02:27:30.612Z,3.00
2023-05-14T02:30:00.778Z,3.60
2023-05-14T02:32:28.444Z,6.82
2023-05-14T02:34:55.491Z,3.70
2023-05-14T02:37:22.318Z,5.78
2023-05-14T02:39:53.456Z,3.47
2023-05-14T02:42:22.852Z,4.57
2023-05-14T02:44:49.680Z,8.07
2023-05-14T02:47:16.449Z,4.03
2023-05-14T02:49:43.161Z,4.68
2023-05-14T02:52:09.983Z,5.80
2023-05-14T02:54:36.752Z,5.00
2023-05-14T02:57:03.621Z,3.83
2023-05-14T02:59:31.455Z,10.93
2023-05-14T03:01:58.851Z,6.93
2023-05-14T03:04:25.939Z,6.53
2023-05-14T03:06:52.675Z,7.03
2023-05-14T03:09:19.945Z,11.05
2023-05-14T03:11:46.665Z,5.68
2023-05-14T03:14:15.526Z,5.70
2023-05-14T03:16:42.534Z,6.90
2023-05-14T03:19:10.114Z,6.18
2023-05-14T03:21:37.092Z,8.07
2023-05-14T03:24:03.904Z,8.18
2023-05-14T03:26:30.613Z,5.40
2023-05-14T03:28:57.277Z,5.32
2023-05-14T03:31:25.002Z,6.28
2023-05-14T03:33:51.859Z,5.13
2023-05-14T03:36:18.737Z,9.68
2023-05-14T03:38:47.654Z,9.20
2023-05-14T03:41:15.537Z,9.20
2023-05-14T03:43:42.582Z,5.00
2023-05-14T03:46:09.637Z,4.90
2023-05-14T03:48:36.666Z,6.57
2023-05-14T03:51:04.890Z,8.27
2023-05-14T03:53:31.696Z,7.03
2023-05-14T03:55:58.528Z,9.23
2023-05-14T03:58:25.517Z,8.38
2023-05-14T04:00:53.273Z,7.18
2023-05-14T04:03:20.057Z,7.38
2023-05-14T04:05:46.899Z,8.75
2023-05-14T04:08:13.780Z,5.57
2023-05-14T04:10:40.742Z,7.60
2023-05-14T04:13:07.741Z,5.50
2023-05-14T04:15:38.172Z,8.35
2023-05-14T04:18:05.489Z,8.90
2023-05-14T04:20:32.781Z,9.75
2023-05-14T04:22:59.682Z,7.28
2023-05-14T04:25:27.573Z,8.10
2023-05-14T04:27:54.634Z,6.35
2023-05-14T04:30:21.665Z,8.20
2023-05-14T04:32:48.642Z,7.20
2023-05-14T04:35:15.369Z,8.93
2023-05-14T04:37:42.178Z,5.70
2023-05-14T04:40:11.380Z,7.40
2023-05-14T04:42:38.850Z,6.78
2023-05-14T04:45:09.307Z,9.75
2023-05-14T04:47:36.161Z,6.90
2023-05-14T04:50:03.078Z,6.40
2023-05-14T04:52:29.771Z,8.45
2023-05-14T04:54:56.947Z,7.88
2023-05-14T04:57:23.721Z,9.23
2023-05-14T04:59:53.377Z,11.23
2023-05-14T05:02:20.268Z,8.70
2023-05-14T05:04:47.261Z,5.68
2023-05-14T05:07:14.661Z,6.93
2023-05-14T05:09:41.356Z,11.10
2023-05-14T05:12:08.412Z,5.15
2023-05-14T05:14:35.143Z,10.90
2023-05-14T05:17:01.857Z,10.30
2023-05-14T05:19:39.504Z,6.80
2023-05-14T05:22:06.874Z,6.30
2023-05-14T05:24:33.608Z,5.22
2023-05-14T05:27:00.529Z,5.70
2023-05-14T05:29:27.244Z,5.47
2023-05-14T05:31:54.070Z,6.72
2023-05-14T05:34:20.933Z,6.88
2023-05-14T05:36:47.652Z,7.72
2023-05-14T05:39:14.457Z,6.75
2023-05-14T05:41:41.133Z,7.43
2023-05-14T05:44:08.005Z,5.20
2023-05-14T05:46:34.753Z,7.57
2023-05-14T05:49:01.497Z,5.82
2023-05-14T05:51:28.214Z,11.25
2023-05-14T05:53:54.996Z,7.68
2023-05-14T05:56:22.130Z,5.93
2023-05-14T05:58:49.344Z,7.38
2023-05-14T06:01:17.357Z,5.25
2023-05-14T06:03:46.978Z,7.85
2023-05-14T06:06:22.939Z,7.45
2023-05-14T06:08:52.460Z,7.57
2023-05-14T06:11:19.172Z,11.80
2023-05-14T06:13:46.174Z,11.23
2023-05-14T06:16:12.878Z,8.15
2023-05-14T06:18:39.647Z,8.25
2023-05-14T06:21:09.428Z,4.97
2023-05-14T06:26:02.849Z,7.18
2023-05-14T06:28:29.502Z,8.27
2023-05-14T06:30:56.308Z,5.22
2023-05-14T06:33:29.743Z,4.15
2023-05-14T06:36:07.107Z,4.93
2023-05-14T06:38:33.894Z,4.70
2023-05-14T06:41:00.781Z,4.72
2023-05-14T06:43:27.582Z,8.80
2023-05-14T06:45:58.176Z,4.30
2023-05-14T06:48:30.294Z,5.32
2023-05-14T06:51:00.479Z,3.60
2023-05-14T06:53:32.651Z,3.72
2023-05-14T06:56:02.621Z,4.55
2023-05-14T06:58:37.729Z,4.45
2023-05-14T07:01:20.170Z,3.85
2023-05-14T07:03:48.011Z,4.03
2023-05-14T07:06:16.189Z,2.85
2023-05-14T07:08:46.108Z,7.65
2023-05-14T07:11:16.282Z,4.45
2023-05-14T07:13:43.342Z,6.90
2023-05-14T07:16:10.537Z,5.10
2023-05-14T07:18:37.527Z,3.85
2023-05-14T07:21:07.612Z,3.13
2023-05-14T07:23:37.419Z,2.88
2023-05-14T07:26:06.010Z,2.60
2023-05-14T07:28:32.952Z,6.05
2023-05-14T07:30:59.971Z,4.05
2023-05-14T07:33:27.129Z,6.65
2023-05-14T07:35:54.322Z,6.90
2023-05-14T07:38:21.426Z,8.60
2023-05-14T07:40:48.231Z,7.80
2023-05-14T07:43:15.231Z,7.07
2023-05-14T07:45:42.051Z,7.78
2023-05-14T07:48:09.011Z,9.55
2023-05-14T07:50:38.205Z,9.40
2023-05-14T07:53:05.937Z,8.02
2023-05-14T07:55:32.897Z,6.75
2023-05-14T07:57:59.703Z,5.18
2023-05-14T08:00:26.735Z,7.95
2023-05-14T08:02:53.619Z,8.65
2023-05-14T08:05:20.641Z,4.68
2023-05-14T08:07:48.124Z,3.42
2023-05-14T08:10:14.866Z,5.35
2023-05-14T08:12:42.756Z,4.85
2023-05-14T08:15:09.952Z,5.97
2023-05-14T08:17:38.852Z,5.13
2023-05-14T08:20:06.902Z,12.15
2023-05-14T08:22:33.680Z,3.78
2023-05-14T08:25:01.645Z,6.63
2023-05-14T08:27:28.485Z,5.95
2023-05-14T08:29:56.132Z,3.80
2023-05-14T08:32:24.049Z,3.63
2023-05-14T08:34:51.882Z,3.38
2023-05-14T08:37:19.355Z,2.92
2023-05-14T08:39:46.745Z,3.38
2023-05-14T08:42:22.657Z,5.47
2023-05-14T08:44:53.641Z,2.35
2023-05-14T08:47:22.585Z,2.08
2023-05-14T08:50:09.891Z,2.83
2023-05-14T08:52:37.141Z,2.85
2023-05-14T08:55:06.508Z,2.50
2023-05-14T09:00:02.149Z,2.10
2023-05-14T09:02:31.371Z,2.17
2023-05-14T09:05:00.807Z,2.47
2023-05-14T09:07:28.536Z,1.92
2023-05-14T09:09:56.229Z,2.90
2023-05-14T09:12:23.422Z,2.95
2023-05-14T09:14:50.923Z,2.30
2023-05-14T09:17:19.831Z,2.80
2023-05-14T09:19:49.128Z,5.07
2023-05-14T09:22:17.707Z,2.20
2023-05-14T09:24:45.135Z,1.83
2023-05-14T09:27:24.218Z,2.22
2023-05-14T09:29:51.529Z,1.77
2023-05-14T09:32:18.257Z,4.53
2023-05-14T09:34:45.139Z,2.95
2023-05-14T09:37:11.887Z,4.10
2023-05-14T09:39:39.124Z,2.65
2023-05-14T09:42:06.316Z,2.40
2023-05-14T09:44:33.249Z,3.25
2023-05-14T09:47:00.112Z,4.13
2023-05-14T09:49:26.849Z,2.58
2023-05-14T09:51:53.911Z,4.80
2023-05-14T09:54:20.779Z,4.28
2023-05-14T09:56:47.519Z,3.17
2023-05-14T09:59:14.326Z,5.88
2023-05-14T10:01:43.771Z,2.70
2023-05-14T10:04:11.988Z,1.85
2023-05-14T10:06:40.309Z,1.48
2023-05-14T10:09:16.994Z,1.80
2023-05-14T10:11:46.283Z,2.30
2023-05-14T10:14:24.582Z,1.80
2023-05-14T10:16:53.135Z,6.22
2023-05-14T10:19:25.564Z,1.53
2023-05-14T10:22:07.008Z,1.27
2023-05-14T10:24:35.804Z,2.05
2023-05-14T10:27:03.121Z,1.20
2023-05-14T10:29:34.764Z,0.85
2023-05-14T10:32:06.355Z,0.98
2023-05-14T10:34:45.696Z,1.45
2023-05-14T10:37:33.139Z,1.50
2023-05-14T10:40:05.789Z,1.73
2023-05-14T10:42:41.027Z,1.85
2023-05-14T10:45:08.997Z,3.03
2023-05-14T10:47:37.184Z,1.48
2023-05-14T10:50:06.487Z,1.50
2023-05-14T10:52:34.106Z,1.50
2023-05-14T10:55:07.828Z,5.22
2023-05-14T10:57:38.085Z,9.40
2023-05-14T11:00:09.006Z,5.57
2023-05-14T11:02:38.002Z,3.30
2023-05-14T11:05:11.014Z,2.85
2023-05-14T11:07:40.274Z,2.67
2023-05-14T11:10:09.514Z,3.03
2023-05-14T11:12:38.624Z,1.73
2023-05-14T11:15:11.225Z,1.00
2023-05-14T11:17:42.061Z,1.85
2023-05-14T11:20:10.669Z,2.63
2023-05-14T11:22:39.037Z,2.67
2023-05-14T11:25:07.113Z,3.53
2023-05-14T11:27:35.851Z,3.47
2023-05-14T11:30:03.900Z,1.55
2023-05-14T11:32:34.164Z,1.60
2023-05-14T11:35:02.563Z,2.78
2023-05-14T11:37:30.742Z,1.85
2023-05-14T11:40:01.535Z,1.45
2023-05-14T11:42:28.374Z,2.35
2023-05-14T11:44:55.444Z,1.27
2023-05-14T11:47:22.990Z,3.50
2023-05-14T11:49:50.210Z,0.98
2023-05-14T11:52:19.643Z,1.75
2023-05-14T11:57:19.542Z,8.07
2023-05-14T11:59:49.920Z,1.27
2023-05-14T12:02:18.830Z,2.13
2023-05-14T12:04:54.039Z,1.35
2023-05-14T12:07:21.695Z,1.02
2023-05-14T12:09:50.118Z,0.98
2023-05-14T12:12:21.939Z,8.10
2023-05-14T12:14:50.350Z,1.08
2023-05-14T12:17:22.530Z,1.65
2023-05-14T12:19:52.050Z,0.90
2023-05-14T12:22:22.111Z,1.20
2023-05-14T12:25:02.802Z,1.42
2023-05-14T12:27:30.439Z,1.42
2023-05-14T12:30:27.481Z,4.45
2023-05-14T12:32:52.747Z,0.60
2023-05-14T12:35:21.295Z,0.52
2023-05-14T12:37:48.107Z,1.42
2023-05-14T12:40:14.932Z,1.08
2023-05-14T12:42:41.670Z,1.20
2023-05-14T12:45:08.912Z,1.00
2023-05-14T12:47:37.074Z,0.95
2023-05-14T12:50:05.145Z,1.27
2023-05-14T12:55:01.787Z,1.17
2023-05-14T12:57:29.853Z,0.80
2023-05-14T12:59:57.458Z,2.80
2023-05-14T13:02:25.587Z,1.27
2023-05-14T13:04:52.696Z,1.15
2023-05-14T13:07:19.768Z,1.75
2023-05-14T13:09:46.449Z,1.77
2023-05-14T13:12:13.130Z,4.25
2023-05-14T13:14:39.823Z,2.05
2023-05-14T13:17:08.173Z,0.70
2023-05-14T13:19:35.582Z,0.65
2023-05-14T13:22:02.497Z,0.90
2023-05-14T13:24:29.678Z,0.95
2023-05-14T13:26:56.669Z,0.80
2023-05-14T13:29:24.559Z,0.95
2023-05-14T13:31:53.241Z,1.88
2023-05-14T13:34:20.091Z,0.40
2023-05-14T13:36:48.609Z,1.30
2023-05-14T13:39:16.577Z,0.85
2023-05-14T13:41:43.661Z,0.60
2023-05-14T13:44:10.464Z,0.82
2023-05-14T13:46:37.860Z,0.90
2023-05-14T13:49:04.919Z,0.50
2023-05-14T13:51:33.126Z,1.10
2023-05-14T13:54:00.036Z,0.88
2023-05-14T13:56:27.790Z,2.90
2023-05-14T13:58:54.801Z,2.50
2023-05-14T14:01:23.912Z,2.03
2023-05-14T14:03:50.623Z,0.90
2023-05-14T14:06:17.489Z,3.03
2023-05-14T14:08:45.625Z,3.65
2023-05-14T14:11:16.239Z,6.70
2023-05-14T14:13:45.115Z,1.50
2023-05-14T14:16:19.348Z,1.20
2023-05-14T14:18:46.372Z,1.48
2023-05-14T14:21:13.373Z,1.33
2023-05-14T14:23:40.484Z,0.88
2023-05-14T14:26:07.346Z,0.73
2023-05-14T14:28:34.371Z,1.35
2023-05-14T14:31:01.595Z,0.82
2023-05-14T14:33:29.837Z,0.82
2023-05-14T14:36:00.211Z,2.50
2023-05-14T14:38:27.271Z,1.67
2023-05-14T14:40:54.509Z,1.52
2023-05-14T14:43:24.256Z,4.38
2023-05-14T14:45:53.008Z,0.70
2023-05-14T14:51:06.909Z,0.60
2023-05-14T14:53:34.976Z,0.95
2023-05-14T14:56:02.217Z,1.58
2023-05-14T14:58:29.308Z,0.70
2023-05-14T15:00:57.628Z,1.02
2023-05-14T15:03:25.307Z,1.35
2023-05-14T15:05:53.829Z,0.45
2023-05-14T15:08:24.898Z,0.60
2023-05-14T15:10:52.296Z,1.25
2023-05-14T15:13:19.226Z,0.90
2023-05-14T15:15:47.651Z,2.13
2023-05-14T15:18:14.444Z,0.40
2023-05-14T15:20:41.266Z,0.40
2023-05-14T15:23:08.095Z,2.25
2023-05-14T15:25:37.521Z,0.90
2023-05-14T15:28:06.375Z,0.25
2023-05-14T15:30:33.909Z,3.63
2023-05-14T15:33:01.245Z,0.50
2023-05-14T15:35:27.993Z,2.75
2023-05-14T15:37:57.336Z,1.60
2023-05-14T15:40:24.487Z,0.30
2023-05-14T15:42:52.805Z,2.20
2023-05-14T15:45:19.756Z,0.40
2023-05-14T15:47:46.510Z,1.20
2023-05-14T15:50:14.113Z,1.40
2023-05-14T15:52:41.603Z,1.02
2023-05-14T15:55:08.997Z,0.90
2023-05-14T15:57:36.175Z,3.97
2023-05-14T16:00:14.701Z,1.42
2023-05-14T16:02:42.693Z,0.80
2023-05-14T16:05:09.981Z,0.95
2023-05-14T16:07:37.221Z,2.40
2023-05-14T16:10:06.274Z,2.42
2023-05-14T16:12:33.408Z,1.83
2023-05-14T16:15:02.823Z,1.38
2023-05-14T16:17:31.895Z,2.33
2023-05-14T16:20:01.149Z,0.77
2023-05-14T16:22:29.338Z,1.27
2023-05-14T16:24:56.227Z,0.68
2023-05-14T16:27:23.094Z,0.80
2023-05-14T16:29:49.838Z,3.40
2023-05-14T16:32:16.842Z,0.63
2023-05-14T16:34:49.708Z,0.88
2023-05-14T16:37:18.174Z,0.45
2023-05-14T16:39:48.189Z,0.88
2023-05-14T16:42:15.029Z,0.47
2023-05-14T16:44:41.867Z,1.23
2023-05-14T16:47:08.798Z,2.10
2023-05-14T16:49:38.273Z,1.13
2023-05-14T16:52:05.629Z,0.88
2023-05-14T16:54:34.901Z,0.80
2023-05-14T16:57:06.663Z,2.20
2023-05-14T16:59:36.530Z,1.85
2023-05-14T17:02:03.560Z,0.45
2023-05-14T17:04:33.573Z,3.50
2023-05-14T17:07:01.556Z,2.47
2023-05-14T17:09:28.328Z,2.03
2023-05-14T17:11:55.304Z,1.55
2023-05-14T17:14:22.645Z,4.57
2023-05-14T17:16:52.188Z,0.95
2023-05-14T17:19:22.435Z,1.33
2023-05-14T17:21:49.254Z,2.08
2023-05-14T17:24:16.051Z,3.17
2023-05-14T17:26:43.034Z,0.63
2023-05-14T17:29:13.566Z,4.10
2023-05-14T17:31:40.576Z,1.77
2023-05-14T17:34:07.487Z,2.17
2023-05-14T17:36:34.408Z,4.18
2023-05-14T17:39:01.185Z,0.47
2023-05-14T17:41:28.355Z,1.45
2023-05-14T17:43:55.697Z,0.95
2023-05-14T17:46:23.153Z,1.17
2023-05-14T17:48:50.775Z,2.08
2023-05-14T17:51:17.622Z,0.75
2023-05-14T17:53:44.473Z,0.70
2023-05-14T17:56:12.224Z,2.65
2023-05-14T17:58:39.423Z,1.48
2023-05-14T18:01:06.553Z,0.93
2023-05-14T18:03:33.860Z,0.63
2023-05-14T18:06:00.772Z,0.40
2023-05-14T18:08:29.348Z,1.63
2023-05-14T18:10:58.308Z,1.27
2023-05-14T18:13:25.369Z,1.88
2023-05-14T18:15:54.444Z,0.60
2023-05-14T18:18:21.861Z,0.47
2023-05-14T18:20:52.444Z,1.65
2023-05-14T18:23:24.217Z,3.45
2023-05-14T18:25:51.484Z,2.65
2023-05-14T18:28:21.579Z,1.60
2023-05-14T18:30:51.165Z,2.13
2023-05-14T18:35:46.641Z,0.43
2023-05-14T18:38:14.015Z,0.93
2023-05-14T18:40:44.237Z,0.93
2023-05-14T18:43:13.536Z,1.63
2023-05-14T18:45:41.042Z,0.75
2023-05-14T18:48:08.335Z,0.40
2023-05-14T18:50:36.970Z,2.88
2023-05-14T18:53:05.959Z,1.45
2023-05-14T18:55:38.335Z,1.30
2023-05-14T18:58:06.155Z,3.05
2023-05-14T19:00:33.174Z,5.35
2023-05-14T19:03:01.189Z,2.47
2023-05-14T19:05:28.947Z,2.15
2023-05-14T19:07:58.949Z,1.33
2023-05-14T19:10:27.346Z,0.22
2023-05-14T19:12:54.806Z,3.40
2023-05-14T19:15:23.980Z,0.95
2023-05-14T19:17:52.207Z,3.15
2023-05-14T19:20:24.909Z,1.63
2023-05-14T19:22:57.243Z,1.45
2023-05-14T19:25:24.997Z,0.20
2023-05-14T19:27:54.549Z,2.05
2023-05-14T19:30:23.483Z,2.03
2023-05-14T19:32:51.570Z,0.63
2023-05-14T19:35:29.021Z,0.52
2023-05-14T19:37:56.330Z,1.33
2023-05-14T19:40:23.432Z,0.60
2023-05-14T19:42:50.785Z,1.35
2023-05-14T19:45:17.653Z,1.23
2023-05-14T19:47:44.789Z,0.60
2023-05-14T19:50:14.539Z,0.82
2023-05-14T19:55:16.166Z,0.63
2023-05-14T19:57:45.958Z,0.43
2023-05-14T20:00:13.616Z,3.10
2023-05-14T20:02:41.867Z,1.60
2023-05-14T20:05:12.897Z,0.40
2023-05-14T20:07:41.020Z,0.40
2023-05-14T20:10:08.499Z,0.57
2023-05-14T20:12:35.848Z,1.58
2023-05-14T20:15:12.587Z,1.67
2023-05-14T20:17:40.083Z,0.50
2023-05-14T20:20:08.524Z,2.15
2023-05-14T20:22:35.883Z,0.82
2023-05-14T20:25:02.858Z,1.42
2023-05-14T20:27:31.759Z,1.27
2023-05-14T20:29:59.424Z,2.40
2023-05-14T20:32:27.838Z,0.80
2023-05-14T20:34:55.046Z,2.58
2023-05-14T20:37:22.286Z,2.08
2023-05-14T20:39:49.189Z,0.73
2023-05-14T20:42:16.119Z,1.10
2023-05-14T20:44:54.621Z,1.08
2023-05-14T20:47:26.669Z,0.30
2023-05-14T20:49:57.943Z,0.30
2023-05-14T20:52:25.117Z,2.78
2023-05-14T20:55:05.486Z,2.35
2023-05-14T20:57:48.565Z,3.45
2023-05-14T21:00:16.086Z,0.70
2023-05-14T21:02:43.187Z,1.10
2023-05-14T21:05:10.527Z,3.03
2023-05-14T21:07:37.777Z,1.00
2023-05-14T21:10:06.207Z,0.90
2023-05-14T21:12:33.256Z,0.55
2023-05-14T21:15:00.504Z,0.80
2023-05-14T21:17:27.777Z,3.15
2023-05-14T21:19:54.723Z,0.68
2023-05-14T21:22:22.453Z,2.63
2023-05-14T21:24:51.393Z,0.80
2023-05-14T21:27:24.915Z,2.78
2023-05-14T21:29:52.247Z,0.85
2023-05-14T21:32:20.280Z,1.40
2023-05-14T21:34:48.825Z,3.35
2023-05-14T21:37:15.839Z,2.15
2023-05-14T21:39:42.840Z,1.80
2023-05-14T21:42:10.003Z,2.20
2023-05-14T21:44:38.416Z,3.33
2023-05-14T21:47:10.761Z,1.75
2023-05-14T21:49:38.505Z,2.58
2023-05-14T21:52:06.546Z,5.10
2023-05-14T21:54:33.894Z,2.03
2023-05-14T21:57:01.827Z,2.38
2023-05-14T21:59:28.756Z,2.65
2023-05-14T22:02:06.774Z,1.73
2023-05-14T22:04:36.485Z,3.22
2023-05-14T22:07:03.690Z,4.55
2023-05-14T22:09:32.429Z,2.28
2023-05-14T22:11:59.602Z,3.30
2023-05-14T22:14:29.506Z,4.25
2023-05-14T22:16:56.768Z,1.65
2023-05-14T22:19:23.672Z,5.85
2023-05-14T22:21:54.280Z,1.85
2023-05-14T22:24:21.132Z,1.60
2023-05-14T22:26:49.216Z,1.42
2023-05-14T22:29:16.046Z,2.03
2023-05-14T22:31:42.914Z,1.92
2023-05-14T22:34:11.015Z,0.90
2023-05-14T22:36:37.861Z,2.55
2023-05-14T22:39:04.701Z,0.77
2023-05-14T22:41:31.536Z,2.15
2023-05-14T22:43:58.381Z,2.45
2023-05-14T22:46:25.425Z,2.67
2023-05-14T22:48:52.986Z,2.78
2023-05-14T22:51:19.885Z,1.73
2023-05-14T22:53:47.388Z,2.00
2023-05-14T22:56:17.220Z,1.35
2023-05-14T22:58:44.322Z,3.85
2023-05-14T23:01:11.191Z,5.88
2023-05-14T23:03:38.241Z,1.50
2023-05-14T23:06:05.290Z,2.28
2023-05-14T23:08:31.981Z,1.58
2023-05-14T23:10:59.446Z,1.45
2023-05-14T23:13:26.448Z,2.92
2023-05-14T23:15:53.905Z,1.05
2023-05-14T23:18:21.155Z,2.83
2023-05-14T23:23:17.281Z,2.00
2023-05-14T23:25:44.248Z,7.05
2023-05-14T23:28:11.913Z,4.75
2023-05-14T23:30:38.835Z,1.73
2023-05-14T23:33:05.732Z,1.00
2023-05-14T23:35:37.365Z,4.47
2023-05-14T23:38:07.868Z,1.88
2023-05-14T23:40:34.865Z,3.13
2023-05-14T23:43:02.078Z,2.70
2023-05-14T23:45:31.061Z,1.63
2023-05-14T23:47:58.696Z,2.47
2023-05-14T23:50:25.813Z,1.45
2023-05-14T23:52:55.020Z,2.70
2023-05-14T23:55:22.355Z,0.95
2023-05-14T23:57:51.279Z,2.60
